LFMH 301030Z AUTO VRB05KT CAVOK 21/07 Q1017

ElémentsDécodage
LFMH Station météo située sur l'aérodrome de SAINT-ETIENNE Bouthéon
301030Z émis le 30 du mois à 10h30 UTC
AUTO Bulletin édité par un automate
VRB05KT vent de direction variable, 05 noeuds
CAVOK Ceiling And Visibility OK
- Visibilité de 10 Km ou plus
- Pas de nuage au-dessous de 1500m ou au-dessous de l'altitude minimale du secteur la plus élevée (si>1500m) et absence de CB
- pas de temps présent significatif
21/07 température 21°C, point de rosée 07°C
 soit une humidité relative de 40%
Q1017 la pression au niveau de la mer (QNH) est de 1017 hPa